sensor_id;sensor_type;location;lat;lon;timestamp;P1;durP1;ratioP1;P2;durP2;ratioP2
72559;SDS011;62987;52.382;9.752;2023-02-25T00:01:17;7.35;;;1.80;;
72559;SDS011;62987;52.382;9.752;2023-02-25T00:03:46;7.78;;;1.83;;
72559;SDS011;62987;52.382;9.752;2023-02-25T00:06:14;8.77;;;2.45;;
72559;SDS011;62987;52.382;9.752;2023-02-25T00:08:43;7.90;;;2.17;;
72559;SDS011;62987;52.382;9.752;2023-02-25T00:11:12;7.63;;;2.58;;
72559;SDS011;62987;52.382;9.752;2023-02-25T00:13:43;9.52;;;1.90;;
72559;SDS011;62987;52.382;9.752;2023-02-25T00:16:12;8.07;;;1.80;;
72559;SDS011;62987;52.382;9.752;2023-02-25T00:18:41;11.35;;;2.78;;
72559;SDS011;62987;52.382;9.752;2023-02-25T00:21:13;6.32;;;2.20;;
72559;SDS011;62987;52.382;9.752;2023-02-25T00:23:43;11.77;;;2.65;;
72559;SDS011;62987;52.382;9.752;2023-02-25T00:26:11;6.38;;;2.30;;
72559;SDS011;62987;52.382;9.752;2023-02-25T00:28:40;8.63;;;2.67;;
72559;SDS011;62987;52.382;9.752;2023-02-25T00:31:11;10.68;;;2.75;;
72559;SDS011;62987;52.382;9.752;2023-02-25T00:33:41;8.02;;;2.60;;
72559;SDS011;62987;52.382;9.752;2023-02-25T00:36:10;9.38;;;3.10;;
72559;SDS011;62987;52.382;9.752;2023-02-25T00:38:40;10.07;;;2.90;;
72559;SDS011;62987;52.382;9.752;2023-02-25T00:41:08;6.95;;;2.25;;
72559;SDS011;62987;52.382;9.752;2023-02-25T00:43:39;16.02;;;2.90;;
72559;SDS011;62987;52.382;9.752;2023-02-25T00:46:08;8.88;;;1.98;;
72559;SDS011;62987;52.382;9.752;2023-02-25T00:48:39;10.57;;;3.05;;
72559;SDS011;62987;52.382;9.752;2023-02-25T00:51:07;9.88;;;2.00;;
72559;SDS011;62987;52.382;9.752;2023-02-25T00:53:37;5.53;;;1.60;;
72559;SDS011;62987;52.382;9.752;2023-02-25T00:56:07;8.80;;;2.22;;
72559;SDS011;62987;52.382;9.752;2023-02-25T00:58:37;9.20;;;2.45;;
72559;SDS011;62987;52.382;9.752;2023-02-25T01:01:13;7.20;;;2.20;;
72559;SDS011;62987;52.382;9.752;2023-02-25T01:03:46;5.55;;;1.65;;
72559;SDS011;62987;52.382;9.752;2023-02-25T01:06:15;8.95;;;1.80;;
72559;SDS011;62987;52.382;9.752;2023-02-25T01:08:43;14.10;;;2.97;;
72559;SDS011;62987;52.382;9.752;2023-02-25T01:11:13;7.55;;;2.50;;
72559;SDS011;62987;52.382;9.752;2023-02-25T01:13:46;11.30;;;3.05;;
72559;SDS011;62987;52.382;9.752;2023-02-25T01:16:16;4.38;;;1.92;;
72559;SDS011;62987;52.382;9.752;2023-02-25T01:18:50;5.90;;;2.08;;
72559;SDS011;62987;52.382;9.752;2023-02-25T01:21:21;9.63;;;2.13;;
72559;SDS011;62987;52.382;9.752;2023-02-25T01:23:53;10.30;;;1.40;;
72559;SDS011;62987;52.382;9.752;2023-02-25T01:26:24;9.18;;;1.95;;
72559;SDS011;62987;52.382;9.752;2023-02-25T01:28:53;5.85;;;2.28;;
72559;SDS011;62987;52.382;9.752;2023-02-25T01:31:22;5.82;;;2.08;;
72559;SDS011;62987;52.382;9.752;2023-02-25T01:33:57;14.27;;;2.65;;
72559;SDS011;62987;52.382;9.752;2023-02-25T01:36:26;12.75;;;2.97;;
72559;SDS011;62987;52.382;9.752;2023-02-25T01:38:56;12.55;;;3.58;;
72559;SDS011;62987;52.382;9.752;2023-02-25T01:41:24;9.48;;;2.40;;
72559;SDS011;62987;52.382;9.752;2023-02-25T01:44:03;9.25;;;2.47;;
72559;SDS011;62987;52.382;9.752;2023-02-25T01:46:33;10.30;;;2.58;;
72559;SDS011;62987;52.382;9.752;2023-02-25T01:49:05;6.00;;;2.20;;
72559;SDS011;62987;52.382;9.752;2023-02-25T01:51:37;10.00;;;2.00;;
72559;SDS011;62987;52.382;9.752;2023-02-25T01:54:06;11.23;;;1.98;;
72559;SDS011;62987;52.382;9.752;2023-02-25T01:56:37;11.13;;;2.38;;
72559;SDS011;62987;52.382;9.752;2023-02-25T01:59:08;11.20;;;2.03;;
72559;SDS011;62987;52.382;9.752;2023-02-25T02:01:37;5.38;;;1.35;;
72559;SDS011;62987;52.382;9.752;2023-02-25T02:04:07;10.18;;;2.20;;
72559;SDS011;62987;52.382;9.752;2023-02-25T02:06:39;7.85;;;1.70;;
72559;SDS011;62987;52.382;9.752;2023-02-25T02:09:10;11.70;;;2.05;;
72559;SDS011;62987;52.382;9.752;2023-02-25T02:11:39;7.60;;;1.70;;
72559;SDS011;62987;52.382;9.752;2023-02-25T02:14:10;7.38;;;1.90;;
72559;SDS011;62987;52.382;9.752;2023-02-25T02:20:01;4.85;;;1.60;;
72559;SDS011;62987;52.382;9.752;2023-02-25T02:22:43;9.57;;;1.33;;
72559;SDS011;62987;52.382;9.752;2023-02-25T02:31:35;5.55;;;1.30;;
72559;SDS011;62987;52.382;9.752;2023-02-25T02:34:16;6.22;;;2.53;;
72559;SDS011;62987;52.382;9.752;2023-02-25T02:36:55;8.07;;;1.98;;
72559;SDS011;62987;52.382;9.752;2023-02-25T02:39:33;7.47;;;1.88;;
72559;SDS011;62987;52.382;9.752;2023-02-25T02:42:15;7.88;;;1.95;;
72559;SDS011;62987;52.382;9.752;2023-02-25T02:44:55;4.25;;;1.70;;
72559;SDS011;62987;52.382;9.752;2023-02-25T02:47:31;5.45;;;1.42;;
72559;SDS011;62987;52.382;9.752;2023-02-25T02:50:03;9.70;;;2.28;;
72559;SDS011;62987;52.382;9.752;2023-02-25T02:52:35;7.78;;;1.90;;
72559;SDS011;62987;52.382;9.752;2023-02-25T02:55:11;6.22;;;1.67;;
72559;SDS011;62987;52.382;9.752;2023-02-25T02:57:49;5.72;;;1.60;;
72559;SDS011;62987;52.382;9.752;2023-02-25T03:00:22;3.20;;;1.05;;
72559;SDS011;62987;52.382;9.752;2023-02-25T03:02:57;6.03;;;2.28;;
72559;SDS011;62987;52.382;9.752;2023-02-25T03:05:30;5.85;;;2.08;;
72559;SDS011;62987;52.382;9.752;2023-02-25T03:08:20;6.97;;;1.42;;
72559;SDS011;62987;52.382;9.752;2023-02-25T03:10:51;9.25;;;1.23;;
72559;SDS011;62987;52.382;9.752;2023-02-25T03:13:20;5.68;;;1.33;;
72559;SDS011;62987;52.382;9.752;2023-02-25T03:15:48;4.68;;;1.40;;
72559;SDS011;62987;52.382;9.752;2023-02-25T03:18:19;8.20;;;1.70;;
72559;SDS011;62987;52.382;9.752;2023-02-25T03:20:49;4.18;;;1.38;;
72559;SDS011;62987;52.382;9.752;2023-02-25T03:23:24;4.72;;;1.00;;
72559;SDS011;62987;52.382;9.752;2023-02-25T03:25:57;6.18;;;1.55;;
72559;SDS011;62987;52.382;9.752;2023-02-25T03:28:36;6.80;;;1.08;;
72559;SDS011;62987;52.382;9.752;2023-02-25T03:31:06;6.68;;;1.40;;
72559;SDS011;62987;52.382;9.752;2023-02-25T03:33:40;4.57;;;1.15;;
72559;SDS011;62987;52.382;9.752;2023-02-25T03:38:48;9.98;;;1.75;;
72559;SDS011;62987;52.382;9.752;2023-02-25T03:41:23;9.65;;;1.85;;
72559;SDS011;62987;52.382;9.752;2023-02-25T03:43:54;3.15;;;0.95;;
72559;SDS011;62987;52.382;9.752;2023-02-25T03:46:24;2.78;;;1.00;;
72559;SDS011;62987;52.382;9.752;2023-02-25T03:48:55;4.70;;;1.60;;
72559;SDS011;62987;52.382;9.752;2023-02-25T03:51:28;2.03;;;0.95;;
72559;SDS011;62987;52.382;9.752;2023-02-25T03:54:01;2.95;;;0.90;;
72559;SDS011;62987;52.382;9.752;2023-02-25T03:56:39;2.05;;;0.80;;
72559;SDS011;62987;52.382;9.752;2023-02-25T03:59:08;2.88;;;1.27;;
72559;SDS011;62987;52.382;9.752;2023-02-25T04:01:36;6.53;;;1.42;;
72559;SDS011;62987;52.382;9.752;2023-02-25T04:04:06;4.97;;;1.65;;
72559;SDS011;62987;52.382;9.752;2023-02-25T04:06:34;7.35;;;1.85;;
72559;SDS011;62987;52.382;9.752;2023-02-25T04:09:04;4.80;;;2.42;;
72559;SDS011;62987;52.382;9.752;2023-02-25T04:11:32;8.18;;;1.13;;
72559;SDS011;62987;52.382;9.752;2023-02-25T04:14:00;2.72;;;0.82;;
72559;SDS011;62987;52.382;9.752;2023-02-25T04:16:28;2.80;;;1.30;;
72559;SDS011;62987;52.382;9.752;2023-02-25T04:18:57;6.38;;;1.58;;
72559;SDS011;62987;52.382;9.752;2023-02-25T04:21:26;3.33;;;1.10;;
72559;SDS011;62987;52.382;9.752;2023-02-25T04:23:56;5.50;;;1.23;;
72559;SDS011;62987;52.382;9.752;2023-02-25T04:26:26;8.77;;;1.33;;
72559;SDS011;62987;52.382;9.752;2023-02-25T04:28:54;4.40;;;1.23;;
72559;SDS011;62987;52.382;9.752;2023-02-25T04:31:22;3.45;;;1.30;;
72559;SDS011;62987;52.382;9.752;2023-02-25T04:33:50;6.18;;;0.98;;
72559;SDS011;62987;52.382;9.752;2023-02-25T04:36:22;5.95;;;0.95;;
72559;SDS011;62987;52.382;9.752;2023-02-25T04:38:52;4.38;;;0.90;;
72559;SDS011;62987;52.382;9.752;2023-02-25T04:41:21;3.45;;;1.35;;
72559;SDS011;62987;52.382;9.752;2023-02-25T04:43:50;7.43;;;1.70;;
72559;SDS011;62987;52.382;9.752;2023-02-25T04:46:18;3.92;;;1.02;;
72559;SDS011;62987;52.382;9.752;2023-02-25T04:48:47;2.70;;;0.98;;
72559;SDS011;62987;52.382;9.752;2023-02-25T04:51:14;4.47;;;1.10;;
72559;SDS011;62987;52.382;9.752;2023-02-25T04:53:42;2.78;;;0.90;;
72559;SDS011;62987;52.382;9.752;2023-02-25T04:56:12;3.63;;;1.23;;
72559;SDS011;62987;52.382;9.752;2023-02-25T04:58:40;5.40;;;1.23;;
72559;SDS011;62987;52.382;9.752;2023-02-25T05:01:09;4.68;;;1.40;;
72559;SDS011;62987;52.382;9.752;2023-02-25T05:03:37;4.60;;;1.13;;
72559;SDS011;62987;52.382;9.752;2023-02-25T05:06:06;3.05;;;1.52;;
72559;SDS011;62987;52.382;9.752;2023-02-25T05:08:35;3.90;;;1.38;;
72559;SDS011;62987;52.382;9.752;2023-02-25T05:11:03;5.55;;;1.25;;
72559;SDS011;62987;52.382;9.752;2023-02-25T05:13:31;6.93;;;1.75;;
72559;SDS011;62987;52.382;9.752;2023-02-25T05:16:03;2.58;;;0.80;;
72559;SDS011;62987;52.382;9.752;2023-02-25T05:18:35;8.68;;;1.73;;
72559;SDS011;62987;52.382;9.752;2023-02-25T05:21:04;5.10;;;1.70;;
72559;SDS011;62987;52.382;9.752;2023-02-25T05:23:35;1.83;;;0.70;;
72559;SDS011;62987;52.382;9.752;2023-02-25T05:26:03;5.03;;;1.10;;
72559;SDS011;62987;52.382;9.752;2023-02-25T05:28:31;2.03;;;1.00;;
72559;SDS011;62987;52.382;9.752;2023-02-25T05:31:02;7.95;;;2.15;;
72559;SDS011;62987;52.382;9.752;2023-02-25T05:33:31;3.42;;;1.25;;
72559;SDS011;62987;52.382;9.752;2023-02-25T05:36:00;3.92;;;1.15;;
72559;SDS011;62987;52.382;9.752;2023-02-25T05:38:28;4.30;;;1.20;;
72559;SDS011;62987;52.382;9.752;2023-02-25T05:40:58;4.03;;;1.33;;
72559;SDS011;62987;52.382;9.752;2023-02-25T05:43:26;3.83;;;0.95;;
72559;SDS011;62987;52.382;9.752;2023-02-25T05:45:54;1.63;;;0.70;;
72559;SDS011;62987;52.382;9.752;2023-02-25T05:48:23;1.73;;;0.82;;
72559;SDS011;62987;52.382;9.752;2023-02-25T05:50:58;5.50;;;1.00;;
72559;SDS011;62987;52.382;9.752;2023-02-25T05:53:28;8.18;;;0.95;;
72559;SDS011;62987;52.382;9.752;2023-02-25T05:55:56;4.28;;;1.50;;
72559;SDS011;62987;52.382;9.752;2023-02-25T05:58:24;2.40;;;0.60;;
72559;SDS011;62987;52.382;9.752;2023-02-25T06:00:52;1.35;;;0.68;;
72559;SDS011;62987;52.382;9.752;2023-02-25T06:03:20;1.73;;;0.70;;
72559;SDS011;62987;52.382;9.752;2023-02-25T06:05:48;1.40;;;0.80;;
72559;SDS011;62987;52.382;9.752;2023-02-25T06:08:16;1.20;;;0.60;;
72559;SDS011;62987;52.382;9.752;2023-02-25T06:10:45;1.83;;;0.90;;
72559;SDS011;62987;52.382;9.752;2023-02-25T06:13:13;1.90;;;0.60;;
72559;SDS011;62987;52.382;9.752;2023-02-25T06:15:41;2.03;;;0.73;;
72559;SDS011;62987;52.382;9.752;2023-02-25T06:18:09;1.23;;;0.60;;
72559;SDS011;62987;52.382;9.752;2023-02-25T06:20:37;1.58;;;0.80;;
72559;SDS011;62987;52.382;9.752;2023-02-25T06:23:05;1.75;;;0.60;;
72559;SDS011;62987;52.382;9.752;2023-02-25T06:25:34;4.78;;;1.20;;
72559;SDS011;62987;52.382;9.752;2023-02-25T06:28:03;3.50;;;0.73;;
72559;SDS011;62987;52.382;9.752;2023-02-25T06:30:31;2.17;;;0.98;;
72559;SDS011;62987;52.382;9.752;2023-02-25T06:32:59;0.82;;;0.57;;
72559;SDS011;62987;52.382;9.752;2023-02-25T06:35:27;1.55;;;0.65;;
72559;SDS011;62987;52.382;9.752;2023-02-25T06:37:56;0.70;;;0.38;;
72559;SDS011;62987;52.382;9.752;2023-02-25T06:40:25;1.45;;;0.50;;
72559;SDS011;62987;52.382;9.752;2023-02-25T06:42:53;4.00;;;0.68;;
72559;SDS011;62987;52.382;9.752;2023-02-25T06:45:23;2.75;;;0.70;;
72559;SDS011;62987;52.382;9.752;2023-02-25T06:47:51;2.78;;;0.70;;
72559;SDS011;62987;52.382;9.752;2023-02-25T06:50:19;3.65;;;0.80;;
72559;SDS011;62987;52.382;9.752;2023-02-25T06:52:47;4.22;;;1.17;;
72559;SDS011;62987;52.382;9.752;2023-02-25T06:55:15;2.83;;;0.85;;
72559;SDS011;62987;52.382;9.752;2023-02-25T06:57:42;2.10;;;0.60;;
72559;SDS011;62987;52.382;9.752;2023-02-25T07:00:11;0.52;;;0.40;;
72559;SDS011;62987;52.382;9.752;2023-02-25T07:02:41;2.42;;;0.47;;
72559;SDS011;62987;52.382;9.752;2023-02-25T07:05:09;1.20;;;1.02;;
72559;SDS011;62987;52.382;9.752;2023-02-25T07:07:36;0.88;;;0.50;;
72559;SDS011;62987;52.382;9.752;2023-02-25T07:10:05;1.63;;;0.70;;
72559;SDS011;62987;52.382;9.752;2023-02-25T07:12:33;1.50;;;0.75;;
72559;SDS011;62987;52.382;9.752;2023-02-25T07:15:01;2.10;;;0.70;;
72559;SDS011;62987;52.382;9.752;2023-02-25T07:17:30;1.52;;;0.93;;
72559;SDS011;62987;52.382;9.752;2023-02-25T07:19:59;1.13;;;0.60;;
72559;SDS011;62987;52.382;9.752;2023-02-25T07:22:27;1.77;;;0.80;;
72559;SDS011;62987;52.382;9.752;2023-02-25T07:24:55;2.33;;;1.75;;
72559;SDS011;62987;52.382;9.752;2023-02-25T07:27:23;3.35;;;1.10;;
72559;SDS011;62987;52.382;9.752;2023-02-25T07:29:51;1.70;;;0.70;;
72559;SDS011;62987;52.382;9.752;2023-02-25T07:32:20;1.63;;;0.70;;
72559;SDS011;62987;52.382;9.752;2023-02-25T07:34:50;2.33;;;0.57;;
72559;SDS011;62987;52.382;9.752;2023-02-25T07:37:19;2.20;;;0.80;;
72559;SDS011;62987;52.382;9.752;2023-02-25T07:39:47;0.88;;;0.50;;
72559;SDS011;62987;52.382;9.752;2023-02-25T07:42:15;0.60;;;0.40;;
72559;SDS011;62987;52.382;9.752;2023-02-25T07:44:46;2.33;;;0.63;;
72559;SDS011;62987;52.382;9.752;2023-02-25T07:47:14;1.88;;;0.50;;
72559;SDS011;62987;52.382;9.752;2023-02-25T07:49:42;2.50;;;0.70;;
72559;SDS011;62987;52.382;9.752;2023-02-25T07:52:10;0.57;;;0.50;;
72559;SDS011;62987;52.382;9.752;2023-02-25T07:54:39;0.82;;;0.57;;
72559;SDS011;62987;52.382;9.752;2023-02-25T07:57:11;1.38;;;0.55;;
72559;SDS011;62987;52.382;9.752;2023-02-25T07:59:39;2.42;;;0.60;;
72559;SDS011;62987;52.382;9.752;2023-02-25T08:02:07;1.83;;;0.60;;
72559;SDS011;62987;52.382;9.752;2023-02-25T08:04:35;2.83;;;1.17;;
72559;SDS011;62987;52.382;9.752;2023-02-25T08:07:04;0.95;;;0.55;;
72559;SDS011;62987;52.382;9.752;2023-02-25T08:09:32;0.45;;;0.45;;
72559;SDS011;62987;52.382;9.752;2023-02-25T08:12:01;2.15;;;1.10;;
72559;SDS011;62987;52.382;9.752;2023-02-25T08:14:29;3.55;;;0.75;;
72559;SDS011;62987;52.382;9.752;2023-02-25T08:16:57;2.65;;;0.75;;
72559;SDS011;62987;52.382;9.752;2023-02-25T08:19:27;2.78;;;1.33;;
72559;SDS011;62987;52.382;9.752;2023-02-25T08:21:55;1.27;;;0.80;;
72559;SDS011;62987;52.382;9.752;2023-02-25T08:24:23;2.35;;;0.75;;
72559;SDS011;62987;52.382;9.752;2023-02-25T08:26:51;2.92;;;0.98;;
72559;SDS011;62987;52.382;9.752;2023-02-25T08:29:21;1.92;;;0.77;;
72559;SDS011;62987;52.382;9.752;2023-02-25T08:31:49;9.07;;;1.65;;
72559;SDS011;62987;52.382;9.752;2023-02-25T08:34:18;1.08;;;0.63;;
72559;SDS011;62987;52.382;9.752;2023-02-25T08:36:46;2.65;;;0.70;;
72559;SDS011;62987;52.382;9.752;2023-02-25T08:39:14;2.30;;;0.70;;
72559;SDS011;62987;52.382;9.752;2023-02-25T08:41:42;2.53;;;0.82;;
72559;SDS011;62987;52.382;9.752;2023-02-25T08:44:10;4.78;;;0.75;;
72559;SDS011;62987;52.382;9.752;2023-02-25T08:46:41;2.40;;;1.23;;
72559;SDS011;62987;52.382;9.752;2023-02-25T08:49:09;2.92;;;0.93;;
72559;SDS011;62987;52.382;9.752;2023-02-25T08:51:37;1.17;;;0.47;;
72559;SDS011;62987;52.382;9.752;2023-02-25T08:54:07;1.45;;;0.60;;
72559;SDS011;62987;52.382;9.752;2023-02-25T08:56:38;2.28;;;1.08;;
72559;SDS011;62987;52.382;9.752;2023-02-25T08:59:10;2.15;;;0.95;;
72559;SDS011;62987;52.382;9.752;2023-02-25T09:01:40;3.30;;;0.75;;
72559;SDS011;62987;52.382;9.752;2023-02-25T09:04:14;1.00;;;0.65;;
72559;SDS011;62987;52.382;9.752;2023-02-25T09:06:44;2.00;;;0.80;;
72559;SDS011;62987;52.382;9.752;2023-02-25T09:09:13;1.05;;;0.63;;
72559;SDS011;62987;52.382;9.752;2023-02-25T09:11:42;2.92;;;1.10;;
72559;SDS011;62987;52.382;9.752;2023-02-25T09:14:10;1.95;;;1.20;;
72559;SDS011;62987;52.382;9.752;2023-02-25T09:16:40;3.80;;;0.98;;
72559;SDS011;62987;52.382;9.752;2023-02-25T09:19:09;1.35;;;0.60;;
72559;SDS011;62987;52.382;9.752;2023-02-25T09:21:38;1.08;;;0.50;;
72559;SDS011;62987;52.382;9.752;2023-02-25T09:24:06;1.20;;;0.70;;
72559;SDS011;62987;52.382;9.752;2023-02-25T09:26:35;1.75;;;0.52;;
72559;SDS011;62987;52.382;9.752;2023-02-25T09:29:04;2.38;;;0.65;;
72559;SDS011;62987;52.382;9.752;2023-02-25T09:31:33;0.57;;;0.40;;
72559;SDS011;62987;52.382;9.752;2023-02-25T09:34:05;3.25;;;0.70;;
72559;SDS011;62987;52.382;9.752;2023-02-25T09:36:35;1.95;;;0.82;;
72559;SDS011;62987;52.382;9.752;2023-02-25T09:39:04;1.17;;;0.40;;
72559;SDS011;62987;52.382;9.752;2023-02-25T09:41:38;1.20;;;0.28;;
72559;SDS011;62987;52.382;9.752;2023-02-25T09:44:11;0.75;;;0.40;;
72559;SDS011;62987;52.382;9.752;2023-02-25T09:46:44;0.50;;;0.38;;
72559;SDS011;62987;52.382;9.752;2023-02-25T09:49:18;2.30;;;0.93;;
72559;SDS011;62987;52.382;9.752;2023-02-25T09:51:53;1.77;;;0.90;;
72559;SDS011;62987;52.382;9.752;2023-02-25T09:56:56;1.13;;;0.50;;
72559;SDS011;62987;52.382;9.752;2023-02-25T09:59:28;0.85;;;0.68;;
72559;SDS011;62987;52.382;9.752;2023-02-25T10:01:57;2.42;;;0.80;;
72559;SDS011;62987;52.382;9.752;2023-02-25T10:04:36;4.47;;;0.68;;
72559;SDS011;62987;52.382;9.752;2023-02-25T10:07:10;2.10;;;0.75;;
72559;SDS011;62987;52.382;9.752;2023-02-25T10:09:47;2.47;;;0.82;;
72559;SDS011;62987;52.382;9.752;2023-02-25T10:12:23;1.48;;;0.75;;
72559;SDS011;62987;52.382;9.752;2023-02-25T10:15:02;2.20;;;0.80;;
72559;SDS011;62987;52.382;9.752;2023-02-25T10:17:43;1.95;;;0.57;;
72559;SDS011;62987;52.382;9.752;2023-02-25T10:20:36;2.17;;;0.98;;
72559;SDS011;62987;52.382;9.752;2023-02-25T10:23:16;1.45;;;0.75;;
72559;SDS011;62987;52.382;9.752;2023-02-25T10:25:55;1.92;;;0.73;;
72559;SDS011;62987;52.382;9.752;2023-02-25T10:28:27;1.10;;;0.60;;
72559;SDS011;62987;52.382;9.752;2023-02-25T10:30:58;1.15;;;0.65;;
72559;SDS011;62987;52.382;9.752;2023-02-25T10:33:32;2.80;;;0.80;;
72559;SDS011;62987;52.382;9.752;2023-02-25T10:36:04;2.28;;;1.15;;
72559;SDS011;62987;52.382;9.752;2023-02-25T10:38:36;1.33;;;0.70;;
72559;SDS011;62987;52.382;9.752;2023-02-25T10:41:08;1.02;;;0.63;;
72559;SDS011;62987;52.382;9.752;2023-02-25T10:43:36;2.22;;;0.90;;
72559;SDS011;62987;52.382;9.752;2023-02-25T10:46:06;2.20;;;0.85;;
72559;SDS011;62987;52.382;9.752;2023-02-25T10:48:41;1.02;;;0.88;;
72559;SDS011;62987;52.382;9.752;2023-02-25T10:51:14;1.27;;;0.60;;
72559;SDS011;62987;52.382;9.752;2023-02-25T10:53:59;0.88;;;0.57;;
72559;SDS011;62987;52.382;9.752;2023-02-25T10:56:31;0.50;;;0.40;;
72559;SDS011;62987;52.382;9.752;2023-02-25T10:59:06;1.48;;;0.70;;
72559;SDS011;62987;52.382;9.752;2023-02-25T11:01:49;0.90;;;0.60;;
72559;SDS011;62987;52.382;9.752;2023-02-25T11:04:18;1.30;;;0.70;;
72559;SDS011;62987;52.382;9.752;2023-02-25T11:06:50;4.97;;;1.30;;
72559;SDS011;62987;52.382;9.752;2023-02-25T11:09:32;0.65;;;0.60;;
72559;SDS011;62987;52.382;9.752;2023-02-25T11:12:14;1.52;;;0.60;;
72559;SDS011;62987;52.382;9.752;2023-02-25T11:14:45;0.68;;;0.50;;
72559;SDS011;62987;52.382;9.752;2023-02-25T11:17:13;2.35;;;0.70;;
72559;SDS011;62987;52.382;9.752;2023-02-25T11:19:46;2.58;;;0.85;;
72559;SDS011;62987;52.382;9.752;2023-02-25T11:22:19;1.67;;;0.82;;
72559;SDS011;62987;52.382;9.752;2023-02-25T11:24:53;4.50;;;0.90;;
72559;SDS011;62987;52.382;9.752;2023-02-25T11:27:28;1.83;;;0.85;;
72559;SDS011;62987;52.382;9.752;2023-02-25T11:30:04;4.63;;;0.90;;
72559;SDS011;62987;52.382;9.752;2023-02-25T11:32:34;1.88;;;0.65;;
72559;SDS011;62987;52.382;9.752;2023-02-25T11:35:07;2.40;;;0.95;;
72559;SDS011;62987;52.382;9.752;2023-02-25T11:37:45;3.67;;;1.05;;
72559;SDS011;62987;52.382;9.752;2023-02-25T11:40:19;4.53;;;1.80;;
72559;SDS011;62987;52.382;9.752;2023-02-25T11:43:00;2.35;;;0.80;;
72559;SDS011;62987;52.382;9.752;2023-02-25T11:45:30;1.25;;;0.60;;
72559;SDS011;62987;52.382;9.752;2023-02-25T11:48:00;1.02;;;0.93;;
72559;SDS011;62987;52.382;9.752;2023-02-25T11:50:31;3.65;;;1.02;;
72559;SDS011;62987;52.382;9.752;2023-02-25T11:53:07;4.15;;;0.73;;
72559;SDS011;62987;52.382;9.752;2023-02-25T11:55:51;1.48;;;0.90;;
72559;SDS011;62987;52.382;9.752;2023-02-25T11:58:31;1.08;;;0.63;;
72559;SDS011;62987;52.382;9.752;2023-02-25T12:01:12;1.15;;;0.50;;
72559;SDS011;62987;52.382;9.752;2023-02-25T12:03:51;1.10;;;0.70;;
72559;SDS011;62987;52.382;9.752;2023-02-25T12:06:32;3.10;;;0.80;;
72559;SDS011;62987;52.382;9.752;2023-02-25T12:09:16;0.90;;;0.47;;
72559;SDS011;62987;52.382;9.752;2023-02-25T12:12:10;3.80;;;0.75;;
72559;SDS011;62987;52.382;9.752;2023-02-25T12:15:06;1.55;;;1.35;;
72559;SDS011;62987;52.382;9.752;2023-02-25T12:17:53;2.05;;;0.70;;
72559;SDS011;62987;52.382;9.752;2023-02-25T12:30:06;1.27;;;0.55;;
72559;SDS011;62987;52.382;9.752;2023-02-25T12:32:56;6.65;;;0.93;;
72559;SDS011;62987;52.382;9.752;2023-02-25T12:35:39;1.60;;;0.65;;
72559;SDS011;62987;52.382;9.752;2023-02-25T12:38:36;1.30;;;0.60;;
72559;SDS011;62987;52.382;9.752;2023-02-25T12:44:13;1.42;;;0.70;;
72559;SDS011;62987;52.382;9.752;2023-02-25T12:47:10;1.90;;;0.82;;
72559;SDS011;62987;52.382;9.752;2023-02-25T12:49:56;2.25;;;0.98;;
72559;SDS011;62987;52.382;9.752;2023-02-25T12:52:36;1.83;;;0.75;;
72559;SDS011;62987;52.382;9.752;2023-02-25T12:55:25;1.33;;;0.90;;
72559;SDS011;62987;52.382;9.752;2023-02-25T12:58:10;1.13;;;0.60;;
72559;SDS011;62987;52.382;9.752;2023-02-25T13:01:05;0.93;;;0.70;;
72559;SDS011;62987;52.382;9.752;2023-02-25T13:03:50;2.20;;;1.00;;
72559;SDS011;62987;52.382;9.752;2023-02-25T13:06:38;1.20;;;0.60;;
72559;SDS011;62987;52.382;9.752;2023-02-25T13:09:25;3.30;;;0.90;;
72559;SDS011;62987;52.382;9.752;2023-02-25T13:12:08;2.35;;;0.80;;
72559;SDS011;62987;52.382;9.752;2023-02-25T13:14:51;2.30;;;0.80;;
72559;SDS011;62987;52.382;9.752;2023-02-25T13:20:37;1.20;;;0.60;;
72559;SDS011;62987;52.382;9.752;2023-02-25T13:23:21;2.45;;;0.38;;
72559;SDS011;62987;52.382;9.752;2023-02-25T13:26:06;1.75;;;0.40;;
72559;SDS011;62987;52.382;9.752;2023-02-25T13:28:51;1.63;;;0.70;;
72559;SDS011;62987;52.382;9.752;2023-02-25T13:31:38;0.65;;;0.47;;
72559;SDS011;62987;52.382;9.752;2023-02-25T13:34:21;1.25;;;0.73;;
72559;SDS011;62987;52.382;9.752;2023-02-25T13:37:06;1.42;;;0.80;;
72559;SDS011;62987;52.382;9.752;2023-02-25T13:39:51;1.45;;;1.00;;
72559;SDS011;62987;52.382;9.752;2023-02-25T13:42:38;3.95;;;1.15;;
72559;SDS011;62987;52.382;9.752;2023-02-25T13:48:24;1.60;;;0.68;;
72559;SDS011;62987;52.382;9.752;2023-02-25T13:51:01;2.42;;;0.80;;
72559;SDS011;62987;52.382;9.752;2023-02-25T13:53:54;2.67;;;0.82;;
72559;SDS011;62987;52.382;9.752;2023-02-25T13:56:54;1.25;;;0.75;;
72559;SDS011;62987;52.382;9.752;2023-02-25T13:59:40;1.17;;;0.60;;
72559;SDS011;62987;52.382;9.752;2023-02-25T14:02:31;1.48;;;0.65;;
72559;SDS011;62987;52.382;9.752;2023-02-25T14:05:20;2.47;;;0.73;;
72559;SDS011;62987;52.382;9.752;2023-02-25T14:08:14;1.15;;;0.60;;
72559;SDS011;62987;52.382;9.752;2023-02-25T14:10:58;3.40;;;0.90;;
72559;SDS011;62987;52.382;9.752;2023-02-25T14:13:43;0.85;;;0.50;;
72559;SDS011;62987;52.382;9.752;2023-02-25T14:16:44;1.17;;;0.75;;
72559;SDS011;62987;52.382;9.752;2023-02-25T14:19:26;2.00;;;0.70;;
72559;SDS011;62987;52.382;9.752;2023-02-25T14:22:10;1.17;;;0.70;;
72559;SDS011;62987;52.382;9.752;2023-02-25T14:24:50;2.95;;;0.93;;
72559;SDS011;62987;52.382;9.752;2023-02-25T14:27:25;3.80;;;0.95;;
72559;SDS011;62987;52.382;9.752;2023-02-25T14:30:00;2.08;;;1.05;;
72559;SDS011;62987;52.382;9.752;2023-02-25T14:32:42;1.63;;;0.70;;
72559;SDS011;62987;52.382;9.752;2023-02-25T14:35:24;2.50;;;0.98;;
72559;SDS011;62987;52.382;9.752;2023-02-25T14:38:06;3.05;;;1.33;;
72559;SDS011;62987;52.382;9.752;2023-02-25T14:40:38;1.80;;;0.90;;
72559;SDS011;62987;52.382;9.752;2023-02-25T14:46:03;3.20;;;0.65;;
72559;SDS011;62987;52.382;9.752;2023-02-25T14:48:42;2.10;;;0.73;;
72559;SDS011;62987;52.382;9.752;2023-02-25T14:54:14;1.27;;;0.68;;
72559;SDS011;62987;52.382;9.752;2023-02-25T14:57:07;1.80;;;0.73;;
72559;SDS011;62987;52.382;9.752;2023-02-25T14:59:54;1.88;;;0.85;;
72559;SDS011;62987;52.382;9.752;2023-02-25T15:02:37;1.30;;;0.68;;
72559;SDS011;62987;52.382;9.752;2023-02-25T15:05:23;3.35;;;0.70;;
72559;SDS011;62987;52.382;9.752;2023-02-25T15:08:16;1.90;;;0.63;;
72559;SDS011;62987;52.382;9.752;2023-02-25T15:11:07;2.42;;;0.90;;
72559;SDS011;62987;52.382;9.752;2023-02-25T15:14:15;2.42;;;0.88;;
72559;SDS011;62987;52.382;9.752;2023-02-25T15:17:09;1.95;;;0.82;;
72559;SDS011;62987;52.382;9.752;2023-02-25T15:22:52;0.93;;;0.60;;
72559;SDS011;62987;52.382;9.752;2023-02-25T15:25:34;1.20;;;0.82;;
72559;SDS011;62987;52.382;9.752;2023-02-25T15:37:10;2.20;;;0.88;;
72559;SDS011;62987;52.382;9.752;2023-02-25T15:39:47;2.35;;;0.93;;
72559;SDS011;62987;52.382;9.752;2023-02-25T15:42:35;3.15;;;0.90;;
72559;SDS011;62987;52.382;9.752;2023-02-25T15:48:22;0.82;;;0.60;;
72559;SDS011;62987;52.382;9.752;2023-02-25T15:51:02;3.67;;;0.93;;
72559;SDS011;62987;52.382;9.752;2023-02-25T15:53:46;1.98;;;0.60;;
72559;SDS011;62987;52.382;9.752;2023-02-25T15:56:28;2.28;;;0.80;;
72559;SDS011;62987;52.382;9.752;2023-02-25T15:59:11;1.85;;;0.68;;
72559;SDS011;62987;52.382;9.752;2023-02-25T16:05:17;2.08;;;0.95;;
72559;SDS011;62987;52.382;9.752;2023-02-25T16:07:49;5.63;;;1.05;;
72559;SDS011;62987;52.382;9.752;2023-02-25T16:10:26;3.83;;;1.00;;
72559;SDS011;62987;52.382;9.752;2023-02-25T16:12:59;5.38;;;1.40;;
72559;SDS011;62987;52.382;9.752;2023-02-25T16:15:30;1.85;;;0.80;;
72559;SDS011;62987;52.382;9.752;2023-02-25T16:20:40;3.40;;;1.35;;
72559;SDS011;62987;52.382;9.752;2023-02-25T16:23:12;3.95;;;1.98;;
72559;SDS011;62987;52.382;9.752;2023-02-25T16:25:46;3.67;;;2.03;;
72559;SDS011;62987;52.382;9.752;2023-02-25T16:28:24;4.85;;;3.15;;